Terminal Aerodrome Forecast
Issued by NWS Blacksburg, VA

Current Version | Previous Version | Graphics & Text | Print | Product List | Glossary On
Versions: 1 2 3 4 5 6 7 8 9 10 11 12 13 14 15 16 17 18 19
000
FTUS41 KRNK 210301 AAA
TAFBLF
TAF AMD
KBLF 210301Z 2103/2124 27007KT P6SM OVC018
     FM210600 26007KT P6SM BKN012
     FM210800 26007KT P6SM BKN008
     FM211300 25009KT P6SM BKN025
     FM212000 24006KT P6SM BKN040=

USA.gov is the U.S. government's official web portal to all federal, state and local government web resources and services.